EZS41BX EGBB-LSGG
Flight info
| Callsign | EZS41BX |
|---|---|
| Flight time | 1h 24m |
| Altitude | 39000 |
| Route | ADMEX Y321 EMKUK UL612 VEULE DCT PEKIM DCT PILUL DCT PIMUP/N0420F270 DCT PIXIS DCT PIBAT/N0394F230 DCT LUSAR |
| Aircraft | A20N/M-SDE2E3FGHIRWXY/LB1 |
Departure
| Time | 2026-05-04 10:56 |
|---|---|
| Airport | Birmingham Airport (EGBB) |
Arrival
| Time | 2026-05-04 12:21 |
|---|---|
| Airport | Geneva International Airport (LSGG) |
| Time | Latitude | Longitude | Altitude | Speed | Heading |
|---|---|---|---|---|---|
| 2026-05-04 10:34 | 52.45344 | -1.73701 | 335 ft | 0 kts | 146° |
| 2026-05-04 10:44 | 52.45374 | -1.73734 | 330 ft | 2 kts | 146° |
| 2026-05-04 10:45 | 52.45387 | -1.73749 | 330 ft | 2 kts | 146° |
| 2026-05-04 10:45 | 52.45403 | -1.73755 | 330 ft | 2 kts | 212° |
| 2026-05-04 10:45 | 52.45414 | -1.73736 | 330 ft | 2 kts | 236° |
| 2026-05-04 10:45 | 52.45418 | -1.73726 | 331 ft | 0 kts | 238° |
| 2026-05-04 10:49 | 52.45408 | -1.73751 | 330 ft | 1 kts | 236° |
| 2026-05-04 10:49 | 52.45390 | -1.73795 | 331 ft | 6 kts | 236° |
| 2026-05-04 10:50 | 52.45365 | -1.73856 | 333 ft | 6 kts | 235° |
| 2026-05-04 10:51 | 52.45162 | -1.73853 | 330 ft | 10 kts | 147° |
| 2026-05-04 10:52 | 52.45098 | -1.73783 | 333 ft | 11 kts | 146° |
| 2026-05-04 10:52 | 52.45038 | -1.73750 | 330 ft | 8 kts | 161° |
| 2026-05-04 10:52 | 52.44991 | -1.73701 | 334 ft | 8 kts | 145° |
| 2026-05-04 10:54 | 52.44658 | -1.73997 | 331 ft | 9 kts | 305° |
| 2026-05-04 10:54 | 52.44718 | -1.74063 | 331 ft | 17 kts | 326° |
| 2026-05-04 10:56 | 52.50500 | -1.79689 | 2988 ft | 209 kts | 349° |
| 2026-05-04 10:56 | 52.52006 | -1.79417 | 3536 ft | 230 kts | 21° |
| 2026-05-04 10:56 | 52.53294 | -1.77807 | 4338 ft | 241 kts | 52° |
| 2026-05-04 10:57 | 52.53910 | -1.75228 | 5141 ft | 247 kts | 85° |
| 2026-05-04 10:57 | 52.53865 | -1.73356 | 5577 ft | 250 kts | 98° |
| 2026-05-04 10:57 | 52.53609 | -1.71115 | 5889 ft | 253 kts | 103° |
| 2026-05-04 10:57 | 52.53181 | -1.68299 | 5993 ft | 254 kts | 110° |
| 2026-05-04 10:58 | 52.52246 | -1.65865 | 6007 ft | 260 kts | 134° |
| 2026-05-04 10:58 | 52.50920 | -1.63674 | 6050 ft | 277 kts | 138° |
| 2026-05-04 10:58 | 52.49514 | -1.61476 | 6051 ft | 281 kts | 138° |
| 2026-05-04 10:58 | 52.48098 | -1.59248 | 6049 ft | 281 kts | 138° |
| 2026-05-04 10:59 | 52.46706 | -1.57032 | 6046 ft | 281 kts | 138° |
| 2026-05-04 10:59 | 52.45148 | -1.55146 | 6051 ft | 278 kts | 150° |
| 2026-05-04 10:59 | 52.43501 | -1.53485 | 6047 ft | 278 kts | 151° |
| 2026-05-04 10:59 | 52.41835 | -1.51861 | 6043 ft | 278 kts | 152° |
| 2026-05-04 11:00 | 52.40173 | -1.50242 | 6044 ft | 278 kts | 152° |
| 2026-05-04 11:01 | 52.27568 | -1.43654 | 9564 ft | 277 kts | 175° |
| 2026-05-04 11:02 | 52.25649 | -1.43210 | 10355 ft | 282 kts | 174° |
| 2026-05-04 11:02 | 52.23641 | -1.42711 | 10739 ft | 301 kts | 173° |
| 2026-05-04 11:05 | 51.90592 | -1.30080 | 19292 ft | 389 kts | 154° |
| 2026-05-04 11:06 | 51.87549 | -1.27469 | 20012 ft | 393 kts | 154° |
| 2026-05-04 11:06 | 51.85914 | -1.26074 | 20401 ft | 395 kts | 154° |
| 2026-05-04 11:06 | 51.83501 | -1.24047 | 20962 ft | 397 kts | 155° |
| 2026-05-04 11:06 | 51.81026 | -1.22009 | 21509 ft | 400 kts | 155° |
| 2026-05-04 11:08 | 51.63156 | -1.07738 | 24823 ft | 417 kts | 156° |
| 2026-05-04 11:10 | 51.46166 | -0.88945 | 27569 ft | 430 kts | 149° |
| 2026-05-04 11:12 | 51.27048 | -0.76202 | 30513 ft | 421 kts | 162° |
| 2026-05-04 11:12 | 51.24325 | -0.74499 | 30819 ft | 421 kts | 161° |
| 2026-05-04 11:12 | 51.21593 | -0.72774 | 31116 ft | 421 kts | 161° |
| 2026-05-04 11:12 | 51.18901 | -0.71065 | 31413 ft | 421 kts | 161° |
| 2026-05-04 11:13 | 51.16175 | -0.69332 | 31707 ft | 421 kts | 161° |
| 2026-05-04 11:13 | 51.13437 | -0.67594 | 31989 ft | 421 kts | 161° |
| 2026-05-04 11:13 | 51.10879 | -0.65973 | 32250 ft | 421 kts | 161° |
| 2026-05-04 11:13 | 51.08151 | -0.64247 | 32529 ft | 421 kts | 161° |
| 2026-05-04 11:14 | 51.05457 | -0.62422 | 32800 ft | 423 kts | 156° |
| 2026-05-04 11:14 | 51.02874 | -0.60142 | 33048 ft | 425 kts | 152° |
| 2026-05-04 11:14 | 51.00381 | -0.57586 | 33325 ft | 427 kts | 149° |
| 2026-05-04 11:16 | 50.84048 | -0.39763 | 34803 ft | 427 kts | 149° |
| 2026-05-04 11:16 | 50.81565 | -0.37136 | 34980 ft | 428 kts | 149° |
| 2026-05-04 11:16 | 50.79087 | -0.34522 | 35148 ft | 428 kts | 149° |
| 2026-05-04 11:17 | 50.76609 | -0.31911 | 35322 ft | 428 kts | 149° |
| 2026-05-04 11:17 | 50.74157 | -0.29330 | 35483 ft | 428 kts | 149° |
| 2026-05-04 11:19 | 50.56715 | -0.11045 | 36524 ft | 431 kts | 150° |
| 2026-05-04 11:19 | 50.54239 | -0.08462 | 36660 ft | 431 kts | 150° |
| 2026-05-04 11:19 | 50.51765 | -0.05884 | 36796 ft | 431 kts | 150° |
| 2026-05-04 11:19 | 50.49258 | -0.03275 | 36934 ft | 431 kts | 150° |
| 2026-05-04 11:20 | 50.44229 | 0.01946 | 37009 ft | 433 kts | 150° |
| 2026-05-04 11:20 | 50.39207 | 0.07149 | 37007 ft | 432 kts | 150° |
| 2026-05-04 11:22 | 50.19137 | 0.27809 | 37012 ft | 435 kts | 150° |
| 2026-05-04 11:23 | 50.14066 | 0.33017 | 37010 ft | 442 kts | 150° |
| 2026-05-04 11:25 | 49.95874 | 0.51630 | 37005 ft | 448 kts | 150° |
| 2026-05-04 11:25 | 49.90654 | 0.56936 | 37004 ft | 448 kts | 150° |
| 2026-05-04 11:27 | 49.69407 | 0.85611 | 36987 ft | 453 kts | 140° |
| 2026-05-04 11:28 | 49.64839 | 0.92231 | 36982 ft | 452 kts | 141° |
| 2026-05-04 11:28 | 49.60226 | 0.98867 | 36985 ft | 452 kts | 141° |
| 2026-05-04 11:29 | 49.55614 | 1.05483 | 36987 ft | 452 kts | 141° |
| 2026-05-04 11:29 | 49.51033 | 1.12043 | 36992 ft | 452 kts | 141° |
| 2026-05-04 11:33 | 49.18987 | 1.58197 | 36980 ft | 452 kts | 139° |
| 2026-05-04 11:33 | 49.14541 | 1.65023 | 36972 ft | 452 kts | 139° |
| 2026-05-04 11:34 | 49.10099 | 1.71814 | 36972 ft | 452 kts | 139° |
| 2026-05-04 11:34 | 49.05676 | 1.78550 | 36975 ft | 452 kts | 139° |
| 2026-05-04 11:35 | 49.01748 | 1.84519 | 36969 ft | 451 kts | 139° |
| 2026-05-04 11:35 | 48.97296 | 1.91267 | 36969 ft | 451 kts | 139° |
| 2026-05-04 11:36 | 48.92857 | 1.97976 | 36970 ft | 451 kts | 139° |
| 2026-05-04 11:36 | 48.88403 | 2.04690 | 36967 ft | 451 kts | 139° |
| 2026-05-04 11:37 | 48.83936 | 2.11406 | 36967 ft | 451 kts | 139° |
| 2026-05-04 11:37 | 48.79502 | 2.18054 | 36962 ft | 450 kts | 139° |
| 2026-05-04 11:38 | 48.75032 | 2.24739 | 36964 ft | 450 kts | 139° |
| 2026-05-04 11:38 | 48.70559 | 2.31410 | 36991 ft | 450 kts | 139° |
| 2026-05-04 11:39 | 48.66094 | 2.38053 | 36991 ft | 450 kts | 139° |
| 2026-05-04 11:41 | 48.50480 | 2.61144 | 36962 ft | 449 kts | 140° |
| 2026-05-04 11:41 | 48.45997 | 2.67735 | 36967 ft | 449 kts | 140° |
| 2026-05-04 11:42 | 48.41529 | 2.74288 | 36978 ft | 448 kts | 140° |
| 2026-05-04 11:42 | 48.37052 | 2.80836 | 36969 ft | 448 kts | 140° |
| 2026-05-04 11:43 | 48.32577 | 2.87364 | 36980 ft | 448 kts | 140° |
| 2026-05-04 11:43 | 48.28130 | 2.93834 | 36974 ft | 447 kts | 140° |
| 2026-05-04 11:44 | 48.23645 | 3.00343 | 36981 ft | 447 kts | 140° |
| 2026-05-04 11:44 | 48.19167 | 3.06825 | 36976 ft | 448 kts | 140° |
| 2026-05-04 11:45 | 48.14696 | 3.13281 | 36974 ft | 448 kts | 140° |
| 2026-05-04 11:45 | 48.10198 | 3.19760 | 36970 ft | 448 kts | 140° |
| 2026-05-04 11:46 | 48.05701 | 3.26219 | 36972 ft | 448 kts | 140° |
| 2026-05-04 11:46 | 48.01220 | 3.32640 | 36968 ft | 448 kts | 140° |
| 2026-05-04 11:47 | 47.96708 | 3.39089 | 36964 ft | 448 kts | 141° |
| 2026-05-04 11:47 | 47.92202 | 3.45514 | 36966 ft | 448 kts | 141° |
| 2026-05-04 11:48 | 47.87719 | 3.51888 | 36966 ft | 448 kts | 141° |
| 2026-05-04 11:48 | 47.83200 | 3.58299 | 36965 ft | 448 kts | 141° |
| 2026-05-04 11:49 | 47.78707 | 3.64656 | 36965 ft | 448 kts | 141° |
| 2026-05-04 11:49 | 47.74183 | 3.71040 | 36970 ft | 447 kts | 141° |
| 2026-05-04 11:49 | 47.71930 | 3.74216 | 36748 ft | 446 kts | 141° |
| 2026-05-04 11:50 | 47.69674 | 3.77389 | 36365 ft | 446 kts | 141° |
| 2026-05-04 11:50 | 47.67414 | 3.80564 | 36026 ft | 446 kts | 141° |
| 2026-05-04 11:50 | 47.65156 | 3.83733 | 35696 ft | 446 kts | 141° |
| 2026-05-04 11:50 | 47.62905 | 3.86888 | 35375 ft | 445 kts | 141° |
| 2026-05-04 11:51 | 47.60657 | 3.90036 | 35053 ft | 444 kts | 141° |
| 2026-05-04 11:51 | 47.58440 | 3.93136 | 34737 ft | 445 kts | 141° |
| 2026-05-04 11:51 | 47.56158 | 3.96316 | 34573 ft | 454 kts | 141° |
| 2026-05-04 11:51 | 47.53865 | 3.99513 | 34788 ft | 449 kts | 141° |
| 2026-05-04 11:52 | 47.51605 | 4.02667 | 34966 ft | 444 kts | 141° |
| 2026-05-04 11:52 | 47.47897 | 4.07829 | 34845 ft | 437 kts | 141° |
| 2026-05-04 11:52 | 47.45669 | 4.10921 | 34385 ft | 439 kts | 141° |
| 2026-05-04 11:53 | 47.43441 | 4.14008 | 33906 ft | 439 kts | 141° |
| 2026-05-04 11:53 | 47.41204 | 4.17106 | 33356 ft | 439 kts | 141° |
| 2026-05-04 11:53 | 47.38971 | 4.20194 | 32816 ft | 439 kts | 141° |
| 2026-05-04 11:53 | 47.36731 | 4.23288 | 32298 ft | 440 kts | 141° |
| 2026-05-04 11:55 | 47.20983 | 4.44940 | 29477 ft | 443 kts | 141° |
| 2026-05-04 11:55 | 47.18731 | 4.48023 | 29053 ft | 440 kts | 141° |
| 2026-05-04 11:56 | 47.16496 | 4.51078 | 28642 ft | 438 kts | 141° |
| 2026-05-04 11:56 | 47.14265 | 4.54125 | 28224 ft | 435 kts | 141° |
| 2026-05-04 11:56 | 47.12047 | 4.57148 | 27828 ft | 433 kts | 142° |
| 2026-05-04 11:56 | 47.09869 | 4.60115 | 27436 ft | 430 kts | 142° |
| 2026-05-04 11:57 | 47.07679 | 4.63094 | 27046 ft | 428 kts | 142° |
| 2026-05-04 11:57 | 47.05494 | 4.66062 | 26658 ft | 426 kts | 142° |
| 2026-05-04 11:57 | 47.03311 | 4.69023 | 26273 ft | 424 kts | 142° |
| 2026-05-04 11:57 | 47.01174 | 4.71920 | 25903 ft | 422 kts | 142° |
| 2026-05-04 11:58 | 46.99012 | 4.74846 | 25530 ft | 420 kts | 142° |
| 2026-05-04 11:58 | 46.96864 | 4.77750 | 25155 ft | 418 kts | 142° |
| 2026-05-04 11:58 | 46.94723 | 4.80643 | 24798 ft | 417 kts | 142° |
| 2026-05-04 11:58 | 46.92623 | 4.83476 | 24448 ft | 415 kts | 142° |
| 2026-05-04 11:59 | 46.90500 | 4.86336 | 24094 ft | 413 kts | 142° |
| 2026-05-04 11:59 | 46.88387 | 4.89181 | 23743 ft | 411 kts | 142° |
| 2026-05-04 11:59 | 46.86285 | 4.92007 | 23360 ft | 410 kts | 142° |
| 2026-05-04 11:59 | 46.84193 | 4.94817 | 23063 ft | 408 kts | 142° |
| 2026-05-04 12:00 | 46.82096 | 4.97629 | 23018 ft | 408 kts | 142° |
| 2026-05-04 12:00 | 46.80014 | 5.00417 | 23019 ft | 407 kts | 142° |
| 2026-05-04 12:00 | 46.77924 | 5.03215 | 23026 ft | 407 kts | 142° |
| 2026-05-04 12:00 | 46.75834 | 5.06009 | 23024 ft | 406 kts | 142° |
| 2026-05-04 12:01 | 46.73774 | 5.08762 | 23023 ft | 406 kts | 142° |
| 2026-05-04 12:01 | 46.71687 | 5.11546 | 22857 ft | 406 kts | 142° |
| 2026-05-04 12:02 | 46.63475 | 5.31919 | 21239 ft | 426 kts | 94° |
| 2026-05-04 12:03 | 46.63366 | 5.36207 | 20985 ft | 423 kts | 98° |
| 2026-05-04 12:03 | 46.63060 | 5.40458 | 20698 ft | 420 kts | 102° |
| 2026-05-04 12:03 | 46.62619 | 5.44621 | 20279 ft | 415 kts | 104° |
| 2026-05-04 12:03 | 46.62102 | 5.48686 | 19793 ft | 412 kts | 105° |
| 2026-05-04 12:04 | 46.61527 | 5.52769 | 19309 ft | 410 kts | 105° |
| 2026-05-04 12:04 | 46.60931 | 5.56792 | 18826 ft | 401 kts | 105° |
| 2026-05-04 12:04 | 46.60342 | 5.60686 | 18353 ft | 385 kts | 106° |
| 2026-05-04 12:04 | 46.59764 | 5.64443 | 17829 ft | 378 kts | 106° |
| 2026-05-04 12:05 | 46.59185 | 5.68162 | 17299 ft | 374 kts | 106° |
| 2026-05-04 12:05 | 46.58617 | 5.71780 | 16785 ft | 370 kts | 106° |
| 2026-05-04 12:05 | 46.58046 | 5.75414 | 16273 ft | 366 kts | 106° |
| 2026-05-04 12:05 | 46.57483 | 5.78992 | 15892 ft | 360 kts | 105° |
| 2026-05-04 12:06 | 46.57037 | 5.82256 | 15534 ft | 352 kts | 109° |
| 2026-05-04 12:06 | 46.55931 | 5.85235 | 15224 ft | 326 kts | 136° |
| 2026-05-04 12:06 | 46.54156 | 5.87021 | 14976 ft | 302 kts | 160° |
| 2026-05-04 12:06 | 46.52241 | 5.88079 | 14746 ft | 288 kts | 161° |
| 2026-05-04 12:07 | 46.50423 | 5.89198 | 14476 ft | 277 kts | 157° |
| 2026-05-04 12:07 | 46.48756 | 5.90432 | 14218 ft | 268 kts | 154° |
| 2026-05-04 12:07 | 46.47158 | 5.91769 | 13949 ft | 264 kts | 152° |
| 2026-05-04 12:07 | 46.45605 | 5.93174 | 13764 ft | 261 kts | 150° |
| 2026-05-04 12:08 | 46.44097 | 5.94599 | 13470 ft | 260 kts | 150° |
| 2026-05-04 12:08 | 46.42617 | 5.96034 | 13129 ft | 260 kts | 149° |
| 2026-05-04 12:08 | 46.41119 | 5.97507 | 12793 ft | 259 kts | 149° |
| 2026-05-04 12:08 | 46.39629 | 5.98984 | 12465 ft | 258 kts | 149° |
| 2026-05-04 12:09 | 46.38147 | 6.00458 | 12132 ft | 257 kts | 149° |
| 2026-05-04 12:09 | 46.36696 | 6.01904 | 11808 ft | 256 kts | 149° |
| 2026-05-04 12:09 | 46.35249 | 6.03385 | 11486 ft | 256 kts | 144° |
| 2026-05-04 12:09 | 46.34253 | 6.05527 | 11161 ft | 264 kts | 109° |
| 2026-05-04 12:10 | 46.34289 | 6.08185 | 10845 ft | 271 kts | 73° |
| 2026-05-04 12:10 | 46.35370 | 6.10405 | 10529 ft | 274 kts | 40° |
| 2026-05-04 12:10 | 46.36968 | 6.11912 | 10220 ft | 276 kts | 28° |
| 2026-05-04 12:10 | 46.38543 | 6.13504 | 9903 ft | 275 kts | 40° |
| 2026-05-04 12:11 | 46.40007 | 6.15226 | 9551 ft | 274 kts | 40° |
| 2026-05-04 12:11 | 46.41491 | 6.16964 | 9206 ft | 273 kts | 40° |
| 2026-05-04 12:11 | 46.42964 | 6.18653 | 8870 ft | 271 kts | 39° |
| 2026-05-04 12:11 | 46.44401 | 6.20417 | 8526 ft | 269 kts | 45° |
| 2026-05-04 12:12 | 46.45724 | 6.22327 | 8194 ft | 266 kts | 48° |
| 2026-05-04 12:12 | 46.47008 | 6.24242 | 7848 ft | 264 kts | 48° |
| 2026-05-04 12:12 | 46.48276 | 6.26137 | 7531 ft | 260 kts | 49° |
| 2026-05-04 12:12 | 46.49524 | 6.28023 | 7204 ft | 255 kts | 52° |
| 2026-05-04 12:13 | 46.50278 | 6.30212 | 7046 ft | 233 kts | 84° |
| 2026-05-04 12:14 | 46.43271 | 6.38684 | 5175 ft | 202 kts | 201° |
| 2026-05-04 12:15 | 46.42056 | 6.37643 | 4911 ft | 203 kts | 217° |
| 2026-05-04 12:15 | 46.41007 | 6.36256 | 4635 ft | 205 kts | 224° |
| 2026-05-04 12:15 | 46.40011 | 6.34776 | 4343 ft | 205 kts | 225° |
| 2026-05-04 12:15 | 46.39018 | 6.33296 | 4070 ft | 204 kts | 224° |
| 2026-05-04 12:16 | 46.38039 | 6.31846 | 3987 ft | 204 kts | 224° |
| 2026-05-04 12:16 | 46.37082 | 6.30433 | 3961 ft | 188 kts | 224° |
| 2026-05-04 12:16 | 46.36178 | 6.29106 | 3978 ft | 183 kts | 224° |
| 2026-05-04 12:16 | 46.35292 | 6.27804 | 4005 ft | 179 kts | 224° |
| 2026-05-04 12:17 | 46.34419 | 6.26519 | 3995 ft | 178 kts | 224° |
| 2026-05-04 12:17 | 46.33560 | 6.25252 | 3839 ft | 173 kts | 224° |
| 2026-05-04 12:17 | 46.32723 | 6.24016 | 3608 ft | 171 kts | 224° |
| 2026-05-04 12:17 | 46.31889 | 6.22788 | 3379 ft | 171 kts | 225° |
| 2026-05-04 12:18 | 46.31067 | 6.21577 | 3142 ft | 170 kts | 224° |
| 2026-05-04 12:18 | 46.30254 | 6.20380 | 2906 ft | 163 kts | 225° |
| 2026-05-04 12:18 | 46.29469 | 6.19225 | 2689 ft | 162 kts | 226° |
| 2026-05-04 12:18 | 46.28682 | 6.18065 | 2448 ft | 158 kts | 226° |
| 2026-05-04 12:19 | 46.27949 | 6.16987 | 2230 ft | 142 kts | 226° |
| 2026-05-04 12:19 | 46.27330 | 6.16076 | 2053 ft | 132 kts | 225° |
| 2026-05-04 12:19 | 46.27074 | 6.15700 | 1992 ft | 131 kts | 226° |
| 2026-05-04 12:19 | 46.26676 | 6.15115 | 1883 ft | 132 kts | 225° |
| 2026-05-04 12:20 | 46.26026 | 6.14158 | 1672 ft | 135 kts | 226° |
| 2026-05-04 12:20 | 46.25388 | 6.13221 | 1480 ft | 129 kts | 226° |
| 2026-05-04 12:20 | 46.24771 | 6.12312 | 1378 ft | 124 kts | 226° |
| 2026-05-04 12:20 | 46.24265 | 6.11567 | 1377 ft | 79 kts | 225° |
| 2026-05-04 12:21 | 46.24008 | 6.11190 | 1381 ft | 26 kts | 226° |
| 2026-05-04 12:21 | 46.23914 | 6.11081 | 1380 ft | 16 kts | 201° |
| 2026-05-04 12:21 | 46.23802 | 6.11072 | 1381 ft | 15 kts | 167° |
| 2026-05-04 12:21 | 46.23723 | 6.11084 | 1389 ft | 9 kts | 192° |
| 2026-05-04 12:22 | 46.23682 | 6.11045 | 1399 ft | 5 kts | 226° |
| 2026-05-04 12:22 | 46.23659 | 6.11011 | 1400 ft | 4 kts | 225° |
| 2026-05-04 12:22 | 46.23622 | 6.10958 | 1397 ft | 9 kts | 224° |
| 2026-05-04 12:22 | 46.23579 | 6.10895 | 1397 ft | 8 kts | 226° |
| 2026-05-04 12:23 | 46.23539 | 6.10836 | 1405 ft | 8 kts | 225° |
| 2026-05-04 12:23 | 46.23497 | 6.10789 | 1402 ft | 6 kts | 184° |
| 2026-05-04 12:23 | 46.23476 | 6.10811 | 1395 ft | 2 kts | 133° |
| 2026-05-04 12:23 | 46.23464 | 6.10831 | 1399 ft | 4 kts | 134° |
| 2026-05-04 12:24 | 46.23450 | 6.10850 | 1400 ft | 0 kts | 135° |